Time;durP1;ratioP1;P1;durP2;ratioP2;P2;SDS_P1;SDS_P2;PMS_P1;PMS_P2;Temp;Humidity;BMP_temperature;BMP_pressure;BME280_temperature;BME280_humidity;BME280_pressure;Samples;Min_cycle;Max_cycle;Signal;HPM_P1;HPM_P2
2021/08/19 00:01:16;;;;;;;4.50;3.40;;;13.80;99.90;;;;;;4845876;29;20050;-85
2021/08/19 00:03:45;;;;;;;7.20;4.55;;;13.80;99.90;;;;;;4857351;29;20056;-85
2021/08/19 00:06:13;;;;;;;6.55;3.58;;;13.70;99.90;;;;;;4841837;29;20065;-85
2021/08/19 00:08:42;;;;;;;6.80;3.92;;;13.80;99.90;;;;;;4840944;29;20061;-85
2021/08/19 00:11:11;;;;;;;6.13;5.53;;;13.80;99.90;;;;;;4855674;29;20054;-84
2021/08/19 00:13:39;;;;;;;7.65;3.65;;;13.80;99.90;;;;;;4857175;29;20046;-85
2021/08/19 00:16:08;;;;;;;5.15;3.15;;;13.80;99.90;;;;;;4856750;29;20437;-85
2021/08/19 00:18:36;;;;;;;8.70;2.90;;;13.80;99.90;;;;;;4847800;29;20057;-85
2021/08/19 00:21:05;;;;;;;5.22;2.92;;;13.80;99.90;;;;;;4889967;29;20065;-85
2021/08/19 00:23:35;;;;;;;6.35;3.97;;;13.70;99.90;;;;;;4884438;29;20049;-85
2021/08/19 00:26:06;;;;;;;5.20;2.67;;;13.70;99.90;;;;;;4857072;29;20057;-85
2021/08/19 00:28:33;;;;;;;8.50;3.40;;;13.80;99.90;;;;;;4840814;29;20065;-85
2021/08/19 00:31:01;;;;;;;8.00;4.03;;;13.80;99.90;;;;;;4857038;29;20053;-85
2021/08/19 00:33:29;;;;;;;5.88;3.15;;;13.80;99.90;;;;;;4871855;29;20037;-85
2021/08/19 00:35:57;;;;;;;8.48;4.28;;;13.80;99.90;;;;;;4856316;29;20061;-84
2021/08/19 00:38:24;;;;;;;7.68;4.60;;;13.80;99.90;;;;;;4872173;29;20049;-85
2021/08/19 00:40:52;;;;;;;6.70;3.60;;;13.80;99.90;;;;;;4855841;29;20057;-85
2021/08/19 00:43:23;;;;;;;8.23;3.75;;;13.80;99.90;;;;;;4859180;29;20069;-85
2021/08/19 00:45:58;;;;;;;7.03;2.83;;;13.80;99.90;;;;;;4844676;29;20065;-84
2021/08/19 00:48:26;;;;;;;5.13;3.00;;;13.80;99.90;;;;;;4850204;29;20497;-85
2021/08/19 00:50:54;;;;;;;5.45;3.40;;;13.80;99.90;;;;;;4841570;29;20065;-85
2021/08/19 00:53:21;;;;;;;8.02;3.13;;;13.80;99.90;;;;;;4848239;29;20435;-84
2021/08/19 00:55:50;;;;;;;5.72;3.42;;;13.80;99.90;;;;;;4859974;29;20057;-84
2021/08/19 00:58:18;;;;;;;16.98;3.60;;;13.80;99.90;;;;;;4860360;29;20068;-85
2021/08/19 01:00:48;;;;;;;10.43;2.75;;;13.70;99.90;;;;;;4844758;29;20515;-84
2021/08/19 01:03:17;;;;;;;11.63;3.88;;;13.70;99.90;;;;;;4860076;29;20046;-85
2021/08/19 01:05:45;;;;;;;7.05;3.10;;;13.60;99.90;;;;;;4860523;29;20525;-84
2021/08/19 01:08:13;;;;;;;4.72;2.83;;;13.60;99.90;;;;;;4875073;29;20057;-84
2021/08/19 01:10:41;;;;;;;9.25;3.35;;;13.50;99.90;;;;;;4875370;29;20049;-84
2021/08/19 01:13:10;;;;;;;4.13;3.35;;;13.50;99.90;;;;;;4844414;29;20816;-85
2021/08/19 01:15:40;;;;;;;3.08;2.47;;;13.50;99.90;;;;;;4875658;29;20049;-85
2021/08/19 01:18:14;;;;;;;9.20;3.58;;;13.50;99.90;;;;;;4868620;29;20399;-85
2021/08/19 01:20:42;;;;;;;4.43;3.10;;;13.60;99.90;;;;;;4893354;29;20056;-84
2021/08/19 01:23:10;;;;;;;4.53;2.70;;;13.60;99.90;;;;;;4873637;29;20056;-85
2021/08/19 01:25:39;;;;;;;6.30;3.30;;;13.60;99.90;;;;;;4861098;29;20057;-84
2021/08/19 01:28:06;;;;;;;8.05;2.75;;;13.60;99.90;;;;;;4859212;29;20104;-85
2021/08/19 01:30:37;;;;;;;6.20;3.33;;;13.60;99.90;;;;;;4859544;29;20057;-84
2021/08/19 01:33:05;;;;;;;7.65;4.75;;;13.60;99.90;;;;;;4840398;29;20508;-85
2021/08/19 01:35:32;;;;;;;8.40;3.05;;;13.60;99.90;;;;;;4840689;29;20054;-84
2021/08/19 01:38:00;;;;;;;5.40;2.97;;;13.60;99.90;;;;;;4842335;29;20065;-84
2021/08/19 01:40:28;;;;;;;8.70;5.15;;;13.60;99.90;;;;;;4842068;29;20416;-85
2021/08/19 01:42:56;;;;;;;4.47;3.05;;;13.60;99.90;;;;;;4848155;29;20065;-85
2021/08/19 01:45:24;;;;;;;5.15;3.55;;;13.60;99.90;;;;;;4873677;29;20424;-84
2021/08/19 01:47:51;;;;;;;6.45;4.13;;;13.60;99.90;;;;;;4862306;29;20064;-85
2021/08/19 01:50:19;;;;;;;7.28;3.70;;;13.60;99.90;;;;;;4847438;29;20063;-85
2021/08/19 01:52:47;;;;;;;8.48;4.22;;;13.70;99.90;;;;;;4861341;29;20056;-85
2021/08/19 01:55:16;;;;;;;5.70;3.65;;;13.60;99.90;;;;;;4861516;29;20057;-85
2021/08/19 01:57:44;;;;;;;5.05;3.10;;;13.60;99.90;;;;;;4871416;29;20049;-85
2021/08/19 02:00:12;;;;;;;6.68;4.75;;;13.60;99.90;;;;;;4862044;29;20048;-84
2021/08/19 02:02:39;;;;;;;4.38;2.85;;;13.60;99.90;;;;;;4862723;29;20061;-84
2021/08/19 02:05:08;;;;;;;3.80;2.88;;;13.70;99.90;;;;;;4877323;29;20061;-84
2021/08/19 02:07:35;;;;;;;7.47;3.90;;;13.70;99.90;;;;;;4878209;29;20052;-84
2021/08/19 02:10:03;;;;;;;5.20;3.58;;;13.70;99.90;;;;;;4877311;29;20056;-85
2021/08/19 02:12:31;;;;;;;5.50;3.63;;;13.70;99.90;;;;;;4861009;29;20045;-84
2021/08/19 02:14:59;;;;;;;5.00;3.55;;;13.70;99.90;;;;;;4862533;29;20045;-85
2021/08/19 02:17:27;;;;;;;3.78;2.58;;;13.70;99.90;;;;;;4862147;29;20048;-84
2021/08/19 02:19:55;;;;;;;6.53;4.13;;;13.70;99.90;;;;;;4892318;29;20660;-84
2021/08/19 02:22:23;;;;;;;4.50;3.10;;;13.70;99.90;;;;;;4895754;29;20044;-84
2021/08/19 02:24:51;;;;;;;6.30;4.63;;;13.70;99.90;;;;;;4880093;29;20048;-85
2021/08/19 02:27:19;;;;;;;3.03;2.60;;;13.70;99.90;;;;;;4897241;29;20052;-84
2021/08/19 02:29:46;;;;;;;4.03;2.78;;;13.70;99.90;;;;;;4896350;29;20048;-84
2021/08/19 02:32:15;;;;;;;7.75;3.65;;;13.70;99.90;;;;;;4895552;29;20048;-85
2021/08/19 02:34:43;;;;;;;7.68;3.38;;;13.70;99.90;;;;;;4884145;29;20531;-85
2021/08/19 02:37:11;;;;;;;6.65;5.03;;;13.70;99.90;;;;;;4845581;29;20048;-84
2021/08/19 02:39:39;;;;;;;8.60;3.00;;;13.60;99.90;;;;;;4860567;29;20088;-84
2021/08/19 02:42:06;;;;;;;3.78;3.17;;;13.70;99.90;;;;;;4876935;29;20060;-85
2021/08/19 02:44:34;;;;;;;4.30;3.30;;;13.70;99.90;;;;;;4861299;29;20045;-84
2021/08/19 02:47:02;;;;;;;3.85;3.55;;;13.70;99.90;;;;;;4877225;29;20765;-85
2021/08/19 02:49:30;;;;;;;4.97;4.32;;;13.70;99.90;;;;;;4858418;29;20427;-84
2021/08/19 02:51:58;;;;;;;6.72;3.05;;;13.70;99.90;;;;;;4857753;29;20045;-84
2021/08/19 02:54:26;;;;;;;14.07;4.85;;;13.70;99.90;;;;;;4843500;29;20061;-84
2021/08/19 02:56:53;;;;;;;6.47;3.75;;;13.80;99.90;;;;;;4857774;29;20060;-85
2021/08/19 02:59:21;;;;;;;5.47;2.92;;;13.80;99.90;;;;;;4858886;29;20052;-84
2021/08/19 03:01:49;;;;;;;5.45;3.92;;;13.80;99.90;;;;;;4859244;29;20385;-84
2021/08/19 03:04:17;;;;;;;4.72;2.65;;;13.80;99.90;;;;;;4842287;29;20045;-84
2021/08/19 03:06:48;;;;;;;5.07;3.63;;;13.70;99.90;;;;;;4859278;29;20564;-85
2021/08/19 03:09:21;;;;;;;4.47;3.08;;;13.70;99.90;;;;;;4857711;29;20050;-85
2021/08/19 03:11:48;;;;;;;9.85;3.40;;;13.70;99.90;;;;;;4850559;29;20526;-84
2021/08/19 03:14:17;;;;;;;4.45;3.03;;;13.70;99.90;;;;;;4876743;29;20053;-84
2021/08/19 03:16:44;;;;;;;6.95;3.33;;;13.70;99.90;;;;;;4877363;29;20064;-84
2021/08/19 03:19:12;;;;;;;5.18;4.72;;;13.70;99.90;;;;;;4891941;29;20520;-84
2021/08/19 03:21:40;;;;;;;27.20;4.63;;;13.70;99.90;;;;;;4896050;29;20048;-84
2021/08/19 03:24:11;;;;;;;4.95;3.42;;;13.70;99.90;;;;;;4879438;29;20042;-84
2021/08/19 03:26:38;;;;;;;4.05;3.65;;;13.70;99.90;;;;;;4879664;29;20052;-84
2021/08/19 03:29:07;;;;;;;9.07;4.18;;;13.80;99.90;;;;;;4885394;29;20057;-84
2021/08/19 03:31:35;;;;;;;11.05;5.00;;;13.80;99.90;;;;;;4842062;29;20050;-84
2021/08/19 03:34:03;;;;;;;6.03;2.70;;;13.80;99.90;;;;;;4838199;29;20376;-84
2021/08/19 03:36:31;;;;;;;4.90;3.35;;;13.90;99.90;;;;;;4875672;29;20506;-84
2021/08/19 03:39:01;;;;;;;7.75;4.15;;;14.00;99.90;;;;;;4875997;29;20052;-83
2021/08/19 03:41:34;;;;;;;6.25;3.45;;;14.00;99.90;;;;;;4876523;29;20056;-84
2021/08/19 03:44:02;;;;;;;7.22;4.18;;;14.10;99.90;;;;;;4876883;29;20500;-84
2021/08/19 03:46:30;;;;;;;15.52;3.40;;;14.00;99.90;;;;;;4860277;29;20056;-84
2021/08/19 03:48:59;;;;;;;7.13;3.47;;;14.00;99.90;;;;;;4875629;29;20126;-84
2021/08/19 03:51:29;;;;;;;5.50;3.55;;;14.00;99.90;;;;;;4874375;29;21035;-83
2021/08/19 03:53:58;;;;;;;4.00;2.95;;;14.00;99.90;;;;;;4876496;29;20063;-84
2021/08/19 03:56:29;;;;;;;7.50;4.88;;;14.10;99.90;;;;;;4876786;29;20049;-84
2021/08/19 03:58:57;;;;;;;6.32;3.40;;;14.10;99.90;;;;;;4860654;29;20064;-84
2021/08/19 04:01:25;;;;;;;6.43;2.60;;;14.10;99.90;;;;;;4876610;29;20044;-84
2021/08/19 04:03:53;;;;;;;8.82;3.90;;;14.10;99.90;;;;;;4859747;29;20784;-84
2021/08/19 04:06:21;;;;;;;7.13;4.97;;;14.10;99.90;;;;;;4876959;29;20049;-84
2021/08/19 04:08:48;;;;;;;7.85;4.22;;;14.10;99.90;;;;;;4876625;29;20048;-84
2021/08/19 04:11:16;;;;;;;5.70;4.32;;;14.10;99.90;;;;;;4871538;29;20045;-84
2021/08/19 04:13:44;;;;;;;7.20;3.08;;;14.00;99.90;;;;;;4858376;29;20057;-84
2021/08/19 04:16:11;;;;;;;8.23;5.13;;;14.10;99.90;;;;;;4857913;29;20076;-84
2021/08/19 04:18:39;;;;;;;7.85;3.72;;;14.00;99.90;;;;;;4879929;29;20363;-84
2021/08/19 04:21:07;;;;;;;6.30;3.15;;;14.00;99.90;;;;;;4879243;29;20052;-84
2021/08/19 04:23:34;;;;;;;4.88;4.00;;;13.90;99.90;;;;;;4874721;29;20048;-83
2021/08/19 04:26:02;;;;;;;6.45;3.25;;;13.90;99.90;;;;;;4859945;29;20402;-83
2021/08/19 04:28:30;;;;;;;5.35;3.67;;;13.90;99.90;;;;;;4859349;29;20049;-83
2021/08/19 04:30:57;;;;;;;8.48;4.10;;;13.90;99.90;;;;;;4876097;29;20045;-83
2021/08/19 04:33:28;;;;;;;10.07;2.75;;;13.90;99.90;;;;;;4876184;29;20056;-83
2021/08/19 04:35:57;;;;;;;4.43;2.95;;;13.90;99.90;;;;;;4876269;29;20845;-83
2021/08/19 04:38:25;;;;;;;5.97;4.18;;;13.80;99.90;;;;;;4876623;29;20506;-83
2021/08/19 04:40:52;;;;;;;7.00;4.03;;;13.80;99.90;;;;;;4844135;29;20494;-83
2021/08/19 04:43:21;;;;;;;5.13;3.42;;;13.80;99.90;;;;;;4875914;29;20053;-83
2021/08/19 04:45:49;;;;;;;4.47;3.63;;;13.80;99.90;;;;;;4875965;29;20415;-84
2021/08/19 04:48:17;;;;;;;8.82;3.83;;;13.80;99.90;;;;;;4864241;29;20057;-84
2021/08/19 04:50:45;;;;;;;8.48;3.63;;;13.90;99.90;;;;;;4857105;29;20050;-83
2021/08/19 04:53:12;;;;;;;9.00;4.82;;;13.90;99.90;;;;;;4878266;29;20060;-84
2021/08/19 04:55:40;;;;;;;10.35;4.65;;;13.90;99.90;;;;;;4883690;29;20049;-84
2021/08/19 04:58:08;;;;;;;6.55;4.05;;;13.90;99.90;;;;;;4867409;29;20049;-83
2021/08/19 05:00:36;;;;;;;9.98;4.20;;;13.90;99.90;;;;;;4882602;29;20048;-83
2021/08/19 05:03:04;;;;;;;10.70;6.47;;;13.90;99.90;;;;;;4895196;29;20501;-84
2021/08/19 05:05:33;;;;;;;8.00;5.05;;;14.00;99.90;;;;;;4893715;29;20056;-84
2021/08/19 05:08:01;;;;;;;7.68;4.13;;;14.00;99.90;;;;;;4894360;29;20044;-84
2021/08/19 05:10:30;;;;;;;9.82;5.28;;;14.00;99.90;;;;;;4893463;29;20048;-84
2021/08/19 05:12:57;;;;;;;5.97;3.97;;;14.00;99.90;;;;;;4894644;29;20060;-84
2021/08/19 05:15:25;;;;;;;9.63;4.72;;;14.00;99.90;;;;;;4878045;29;20055;-84
2021/08/19 05:17:53;;;;;;;5.90;3.97;;;14.10;99.90;;;;;;4895509;29;20045;-89
2021/08/19 05:20:21;;;;;;;4.57;4.07;;;14.10;99.90;;;;;;4875349;29;20046;-89
2021/08/19 05:22:49;;;;;;;7.68;4.28;;;14.10;99.90;;;;;;4860056;29;20405;-90
2021/08/19 05:25:17;;;;;;;6.47;3.60;;;14.20;99.90;;;;;;4844272;29;20056;-90
2021/08/19 05:27:45;;;;;;;6.88;3.42;;;14.20;99.90;;;;;;4875351;29;20053;-89
2021/08/19 05:30:15;;;;;;;6.18;4.05;;;14.20;99.90;;;;;;4862338;29;20053;-88
2021/08/19 05:32:48;;;;;;;7.88;5.10;;;14.20;99.90;;;;;;4862599;29;20037;-90
2021/08/19 05:35:16;;;;;;;9.02;3.70;;;14.30;99.90;;;;;;4863310;29;20372;-89
2021/08/19 05:37:44;;;;;;;6.15;4.40;;;14.30;99.90;;;;;;4862340;29;20064;-90
2021/08/19 05:40:13;;;;;;;9.57;4.43;;;14.30;99.90;;;;;;4862724;29;20053;-90
2021/08/19 05:42:40;;;;;;;5.93;4.97;;;14.40;99.90;;;;;;4878680;29;20052;-88
2021/08/19 05:45:09;;;;;;;15.82;4.38;;;14.40;99.90;;;;;;4862619;29;20371;-88
2021/08/19 05:47:36;;;;;;;6.82;4.68;;;14.40;99.90;;;;;;4874587;29;20053;-86
2021/08/19 05:50:10;;;;;;;6.45;4.75;;;14.40;99.90;;;;;;4855279;29;20049;-88
2021/08/19 05:52:38;;;;;;;8.68;3.47;;;14.40;99.90;;;;;;4878035;29;20383;-88
2021/08/19 05:55:07;;;;;;;5.90;3.65;;;14.40;99.90;;;;;;4878685;29;20057;-89
2021/08/19 05:57:35;;;;;;;8.52;4.82;;;14.40;99.90;;;;;;4877269;29;20510;-89
2021/08/19 06:00:05;;;;;;;6.10;4.10;;;14.40;99.90;;;;;;4862138;29;20064;-88
2021/08/19 06:02:33;;;;;;;6.45;4.00;;;14.50;99.90;;;;;;4892092;29;20045;-88
2021/08/19 06:05:01;;;;;;;7.03;3.63;;;14.50;99.90;;;;;;4862778;29;20625;-89
2021/08/19 06:07:28;;;;;;;6.13;3.65;;;14.50;99.90;;;;;;4861367;29;20045;-89
2021/08/19 06:09:56;;;;;;;9.55;3.92;;;14.50;99.90;;;;;;4847167;29;20049;-89
2021/08/19 06:12:24;;;;;;;5.93;3.80;;;14.50;99.90;;;;;;4856861;29;20043;-89
2021/08/19 06:14:52;;;;;;;5.32;4.15;;;14.60;99.90;;;;;;4846716;29;20581;-89
2021/08/19 06:17:20;;;;;;;5.38;4.35;;;14.60;99.90;;;;;;4878347;29;20392;-88
2021/08/19 06:19:48;;;;;;;4.18;3.50;;;14.60;99.90;;;;;;4895915;29;20056;-88
2021/08/19 06:22:15;;;;;;;6.97;4.35;;;14.60;99.90;;;;;;4895862;29;20057;-87
2021/08/19 06:24:43;;;;;;;5.30;3.85;;;14.60;99.90;;;;;;4880056;29;20051;-89
2021/08/19 06:27:11;;;;;;;6.97;3.65;;;14.60;99.90;;;;;;4880408;29;20044;-89
2021/08/19 06:29:39;;;;;;;8.10;4.05;;;14.70;99.90;;;;;;4880908;29;20056;-88
2021/08/19 06:32:07;;;;;;;3.80;2.95;;;14.70;99.90;;;;;;4874786;29;20040;-89
2021/08/19 06:34:35;;;;;;;8.65;5.57;;;14.70;99.90;;;;;;4877819;29;20475;-89
2021/08/19 06:37:04;;;;;;;6.10;3.10;;;14.80;99.90;;;;;;4876865;29;20063;-89
2021/08/19 06:39:32;;;;;;;7.75;4.72;;;14.90;99.90;;;;;;4876812;29;20041;-89
2021/08/19 06:42:00;;;;;;;6.53;3.97;;;15.00;99.90;;;;;;4861176;29;20072;-89
2021/08/19 06:44:28;;;;;;;6.32;3.90;;;15.10;99.90;;;;;;4861108;29;20053;-89
2021/08/19 06:46:56;;;;;;;8.40;3.25;;;15.20;99.90;;;;;;4877036;29;20049;-88
2021/08/19 06:49:26;;;;;;;6.07;3.70;;;15.20;99.90;;;;;;4843066;29;20049;-87
2021/08/19 06:51:54;;;;;;;4.90;3.40;;;15.20;99.90;;;;;;4853622;29;20045;-88
2021/08/19 06:54:23;;;;;;;5.53;3.92;;;15.30;99.90;;;;;;4847422;29;20057;-89
2021/08/19 06:56:55;;;;;;;4.13;3.17;;;15.30;99.90;;;;;;4861729;29;20384;-88
2021/08/19 06:59:23;;;;;;;9.25;5.53;;;15.40;99.90;;;;;;4877318;29;20486;-88
2021/08/19 07:01:51;;;;;;;5.50;3.47;;;15.40;99.90;;;;;;4862730;29;20056;-89
2021/08/19 07:04:20;;;;;;;5.80;3.22;;;15.50;99.90;;;;;;4874217;29;20058;-88
2021/08/19 07:06:48;;;;;;;6.03;3.42;;;15.60;99.90;;;;;;4874596;29;20062;-89
2021/08/19 07:09:16;;;;;;;7.50;3.80;;;15.60;99.90;;;;;;4858358;29;20053;-88
2021/08/19 07:11:44;;;;;;;5.78;3.50;;;15.70;99.90;;;;;;4861567;29;20524;-87
2021/08/19 07:14:12;;;;;;;4.93;3.58;;;15.70;99.90;;;;;;4877601;29;20509;-87
2021/08/19 07:16:41;;;;;;;6.15;3.80;;;15.70;99.90;;;;;;4846665;29;20415;-87
2021/08/19 07:19:09;;;;;;;7.45;3.72;;;15.70;99.90;;;;;;4858658;29;20056;-88
2021/08/19 07:21:37;;;;;;;10.27;5.53;;;15.70;99.90;;;;;;4877405;29;20060;-88
2021/08/19 07:24:06;;;;;;;6.30;3.92;;;15.80;99.90;;;;;;4876761;29;20041;-88
2021/08/19 07:26:37;;;;;;;5.82;3.40;;;15.90;99.90;;;;;;4861776;29;20049;-88
2021/08/19 07:29:05;;;;;;;;;;;15.90;99.90;;;;;;4861357;29;20123;-88
2021/08/19 07:31:32;;;;;;;3.45;3.15;;;16.00;99.90;;;;;;4879738;29;19927;-86
2021/08/19 07:34:01;;;;;;;6.05;3.03;;;16.00;99.90;;;;;;4885113;29;20064;-86
2021/08/19 07:36:29;;;;;;;8.85;4.45;;;15.90;99.90;;;;;;4880247;29;20483;-85
2021/08/19 07:38:59;;;;;;;6.50;3.38;;;16.00;99.90;;;;;;4861654;29;20055;-86
2021/08/19 07:41:31;;;;;;;7.20;3.42;;;16.00;99.90;;;;;;4876032;29;20057;-92
2021/08/19 07:43:59;;;;;;;9.32;3.33;;;16.10;99.90;;;;;;4845578;29;20375;-89
2021/08/19 07:46:27;;;;;;;8.73;3.45;;;16.10;99.90;;;;;;4845779;29;20506;-86
2021/08/19 07:48:58;;;;;;;4.95;4.00;;;16.20;99.90;;;;;;4876761;29;20053;-89
2021/08/19 07:51:26;;;;;;;3.50;3.17;;;16.30;99.90;;;;;;4876514;29;20060;-85
2021/08/19 07:53:54;;;;;;;5.30;3.13;;;16.50;99.90;;;;;;4876621;29;20076;-86
2021/08/19 07:56:22;;;;;;;4.38;2.95;;;16.30;99.90;;;;;;4874793;29;20388;-86
2021/08/19 07:58:50;;;;;;;4.65;3.22;;;16.30;99.90;;;;;;4877115;29;20049;-86
2021/08/19 08:01:18;;;;;;;4.05;3.00;;;16.30;99.90;;;;;;4874954;29;20056;-87
2021/08/19 08:03:49;;;;;;;4.10;2.55;;;16.40;99.90;;;;;;4854728;29;20566;-86
2021/08/19 08:06:33;;;;;;;5.25;3.95;;;16.50;99.90;;;;;;4873961;29;20411;-87
2021/08/19 08:09:17;;;;;;;5.85;2.70;;;16.50;99.90;;;;;;4858056;29;20526;-85
2021/08/19 08:12:02;;;;;;;4.65;2.42;;;16.60;99.90;;;;;;4874925;29;20049;-85
2021/08/19 08:14:44;;;;;;;7.05;1.83;;;16.60;99.90;;;;;;4876248;29;20513;-87
2021/08/19 08:17:26;;;;;;;4.65;2.45;;;16.60;99.90;;;;;;4861734;29;20056;-87
2021/08/19 08:20:11;;;;;;;4.60;3.03;;;16.60;99.90;;;;;;4875896;29;20072;-86
2021/08/19 08:22:53;;;;;;;3.85;1.88;;;16.60;99.90;;;;;;4876357;29;20057;-87
2021/08/19 08:25:32;;;;;;;2.80;2.20;;;16.60;99.90;;;;;;4875256;29;20060;-86
2021/08/19 08:28:16;;;;;;;3.58;2.67;;;16.70;99.90;;;;;;4860511;29;20045;-88
2021/08/19 08:30:52;;;;;;;2.67;1.67;;;16.70;99.90;;;;;;4843961;29;20075;-87
2021/08/19 08:33:24;;;;;;;4.53;2.92;;;16.70;99.90;;;;;;4877070;29;20052;-86
2021/08/19 08:35:57;;;;;;;4.40;3.28;;;16.70;99.90;;;;;;4853299;29;20105;-85
2021/08/19 08:38:56;;;;;;;4.25;2.58;;;16.80;99.90;;;;;;4873510;29;20804;-82
2021/08/19 08:41:43;;;;;;;3.80;2.90;;;16.90;99.90;;;;;;4861534;29;20060;-84
2021/08/19 08:44:16;;;;;;;4.82;3.00;;;16.90;99.90;;;;;;4858510;29;20037;-83
2021/08/19 08:46:46;;;;;;;13.35;3.83;;;16.90;99.90;;;;;;4876426;29;20057;-82
2021/08/19 08:49:15;;;;;;;4.80;3.38;;;16.90;99.90;;;;;;4855679;29;20060;-84
2021/08/19 08:51:52;;;;;;;5.30;3.78;;;16.80;99.90;;;;;;4856703;29;20048;-85
2021/08/19 08:54:32;;;;;;;3.63;2.72;;;16.90;99.90;;;;;;4857528;29;20061;-81
2021/08/19 08:57:06;;;;;;;4.38;2.60;;;16.90;99.90;;;;;;4867650;29;20064;-82
2021/08/19 08:59:43;;;;;;;4.13;2.50;;;17.00;99.90;;;;;;4846048;29;20068;-85
2021/08/19 09:02:12;;;;;;;3.33;2.65;;;17.00;99.90;;;;;;4841150;29;20049;-88
2021/08/19 09:04:44;;;;;;;5.72;4.15;;;17.00;99.90;;;;;;4866235;29;20045;-88
2021/08/19 09:07:14;;;;;;;6.57;2.50;;;17.10;99.90;;;;;;4878965;29;20053;-86
2021/08/19 09:09:54;;;;;;;4.40;2.55;;;17.20;99.90;;;;;;4863200;29;20056;-85
2021/08/19 09:12:47;;;;;;;5.70;4.15;;;17.30;99.90;;;;;;4861976;29;20041;-85
2021/08/19 09:15:30;;;;;;;3.47;2.38;;;17.20;99.90;;;;;;4861888;29;20049;-85
2021/08/19 09:18:11;;;;;;;5.15;3.13;;;17.20;99.90;;;;;;4853946;29;20060;-85
2021/08/19 09:21:01;;;;;;;4.70;3.47;;;17.20;99.90;;;;;;4854447;29;20045;-85
2021/08/19 09:23:41;;;;;;;5.85;3.35;;;17.30;99.90;;;;;;4847319;29;20045;-85
2021/08/19 09:26:28;;;;;;;4.20;2.25;;;17.30;99.90;;;;;;4853007;29;20049;-86
2021/08/19 09:29:30;;;;;;;2.53;2.28;;;17.30;99.90;;;;;;4859211;29;20049;-87
2021/08/19 09:32:19;;;;;;;2.50;2.13;;;17.40;99.90;;;;;;4866751;29;20053;-85
2021/08/19 09:34:50;;;;;;;4.13;2.17;;;17.50;99.90;;;;;;4860068;29;20061;-87
2021/08/19 09:37:20;;;;;;;4.00;2.80;;;17.50;99.90;;;;;;4863878;29;20060;-90
2021/08/19 09:39:54;;;;;;;3.67;1.88;;;17.60;99.90;;;;;;4862646;29;20052;-89
2021/08/19 09:42:39;;;;;;;2.05;1.60;;;17.60;99.90;;;;;;4846216;29;20064;-88
2021/08/19 09:45:21;;;;;;;5.30;2.20;;;17.70;99.90;;;;;;4862367;29;20064;-87
2021/08/19 09:47:50;;;;;;;2.30;2.10;;;17.90;99.90;;;;;;4862263;29;20063;-88
2021/08/19 09:50:23;;;;;;;3.55;1.77;;;18.00;99.90;;;;;;4864234;29;20049;-86
2021/08/19 09:52:52;;;;;;;3.05;2.63;;;18.10;99.90;;;;;;4878373;29;20483;-87
2021/08/19 09:55:26;;;;;;;6.03;2.05;;;18.20;99.90;;;;;;4878014;29;20060;-87
2021/08/19 09:58:29;;;;;;;2.38;2.20;;;18.10;99.90;;;;;;4852098;29;20402;-86
2021/08/19 10:01:40;;;;;;;3.17;2.65;;;18.00;99.90;;;;;;4888617;29;20061;-88
2021/08/19 10:04:30;;;;;;;3.67;3.03;;;17.90;99.90;;;;;;4862423;29;20424;-89
2021/08/19 10:07:02;;;;;;;5.32;2.53;;;18.20;99.90;;;;;;4877433;29;20056;-88
2021/08/19 10:09:41;;;;;;;2.78;2.08;;;18.10;99.90;;;;;;4892457;29;20410;-88
2021/08/19 10:13:20;;;;;;;6.30;3.28;;;18.20;99.90;;;;;;4838895;29;20054;-88
2021/08/19 10:15:57;;;;;;;3.15;2.33;;;18.10;99.90;;;;;;4829249;29;20526;-86
2021/08/19 10:19:04;;;;;;;3.40;2.17;;;18.00;99.90;;;;;;4883571;29;20049;-87
2021/08/19 10:22:06;;;;;;;2.55;1.65;;;17.90;99.90;;;;;;4879451;29;20079;-87
2021/08/19 10:24:43;;;;;;;3.33;2.83;;;17.80;99.90;;;;;;4853683;29;20048;-87
2021/08/19 10:27:28;;;;;;;6.32;2.22;;;17.60;99.90;;;;;;4862632;29;20057;-78
2021/08/19 10:29:59;;;;;;;4.55;3.28;;;17.60;99.90;;;;;;4876814;29;20518;-79
2021/08/19 10:32:52;;;;;;;3.35;3.05;;;17.60;99.90;;;;;;4889396;29;20048;-78
2021/08/19 10:35:27;;;;;;;3.80;3.05;;;17.60;99.90;;;;;;4896480;29;20067;-78
2021/08/19 10:37:58;;;;;;;4.85;2.90;;;17.70;99.90;;;;;;4895248;29;20056;-80
2021/08/19 10:40:34;;;;;;;2.55;1.98;;;17.60;99.90;;;;;;4896143;29;20060;-78
2021/08/19 10:43:21;;;;;;;4.85;2.72;;;17.60;99.90;;;;;;4853281;29;20563;-79
2021/08/19 10:46:07;;;;;;;3.17;2.38;;;17.50;99.90;;;;;;4858356;29;20053;-78
2021/08/19 10:48:44;;;;;;;5.22;2.97;;;17.50;99.90;;;;;;4857374;29;20057;-79
2021/08/19 10:51:11;;;;;;;2.63;1.60;;;17.40;99.90;;;;;;4841980;29;20046;-79
2021/08/19 10:53:40;;;;;;;3.17;1.92;;;17.50;99.90;;;;;;4859993;29;20049;-78
2021/08/19 10:56:08;;;;;;;6.20;4.50;;;17.60;99.90;;;;;;4877858;29;20045;-78
2021/08/19 10:58:37;;;;;;;5.55;2.03;;;17.60;99.90;;;;;;4877974;29;20048;-78
2021/08/19 11:01:14;;;;;;;5.30;2.53;;;17.60;99.90;;;;;;4876473;29;20487;-79
2021/08/19 11:03:47;;;;;;;2.08;1.70;;;17.70;99.90;;;;;;4860726;29;20108;-78
2021/08/19 11:06:19;;;;;;;9.00;4.90;;;17.80;99.90;;;;;;4877442;29;20052;-81
2021/08/19 11:08:55;;;;;;;3.47;2.00;;;17.90;99.90;;;;;;4860614;29;20056;-79
2021/08/19 11:11:27;;;;;;;5.13;2.33;;;17.90;99.90;;;;;;4875842;29;20053;-79
2021/08/19 11:14:10;;;;;;;8.73;2.10;;;18.00;99.90;;;;;;4861030;29;20077;-82
2021/08/19 11:16:42;;;;;;;3.33;1.48;;;18.10;99.90;;;;;;4876338;29;20049;-80
2021/08/19 11:19:26;;;;;;;2.88;2.13;;;18.10;99.90;;;;;;4854822;29;20056;-81
2021/08/19 11:22:00;;;;;;;1.92;1.42;;;18.30;99.90;;;;;;4876572;29;20053;-82
2021/08/19 11:24:44;;;;;;;3.55;1.77;;;18.40;99.90;;;;;;4860542;29;20405;-86
2021/08/19 11:27:22;;;;;;;3.72;2.17;;;18.50;99.90;;;;;;4863088;29;20053;-79
2021/08/19 11:29:50;;;;;;;3.78;1.67;;;18.50;99.90;;;;;;4883753;29;20053;-82
2021/08/19 11:32:34;;;;;;;3.90;1.80;;;18.50;99.90;;;;;;4855331;29;20435;-84
2021/08/19 11:35:03;;;;;;;2.75;2.17;;;18.70;99.90;;;;;;4842792;29;20054;-83
2021/08/19 11:37:36;;;;;;;3.70;2.45;;;18.90;99.90;;;;;;4841242;29;20064;-84
2021/08/19 11:40:08;;;;;;;2.88;1.98;;;19.20;99.90;;;;;;4856301;29;20053;-84
2021/08/19 11:42:36;;;;;;;3.78;2.38;;;19.50;99.90;;;;;;4858919;29;20049;-83
2021/08/19 11:45:19;;;;;;;3.38;2.00;;;19.60;99.90;;;;;;4871450;29;20049;-83
2021/08/19 11:47:51;;;;;;;3.17;1.80;;;19.70;99.90;;;;;;4858368;29;20055;-84
2021/08/19 11:50:24;;;;;;;2.08;1.88;;;19.20;99.90;;;;;;4858606;29;20076;-83
2021/08/19 11:53:01;;;;;;;2.25;2.05;;;19.20;99.90;;;;;;4867875;29;20407;-87
2021/08/19 11:55:31;;;;;;;3.42;2.03;;;19.50;99.90;;;;;;4862910;29;20049;-90
2021/08/19 11:58:20;;;;;;;3.10;2.43;;;19.70;99.90;;;;;;4857692;29;20053;-88
2021/08/19 12:01:04;;;;;;;3.80;1.90;;;19.80;99.90;;;;;;4872322;29;20518;-87
2021/08/19 12:03:45;;;;;;;2.38;1.67;;;20.20;99.90;;;;;;4841543;29;20041;-88
2021/08/19 12:06:21;;;;;;;1.98;1.70;;;20.40;99.90;;;;;;4842363;29;20042;-88
2021/08/19 12:08:58;;;;;;;4.05;1.92;;;20.50;99.90;;;;;;4841496;29;20053;-89
2021/08/19 12:11:28;;;;;;;2.28;2.08;;;20.50;99.90;;;;;;4850271;29;20053;-89
2021/08/19 12:14:10;;;;;;;2.53;1.45;;;20.70;99.90;;;;;;4869942;29;20050;-89
2021/08/19 12:16:49;;;;;;;2.42;1.75;;;20.30;99.90;;;;;;4886115;29;20793;-92
2021/08/19 12:19:20;;;;;;;2.03;1.75;;;19.70;99.90;;;;;;4874982;29;20057;-89
2021/08/19 12:22:01;;;;;;;2.67;1.23;;;19.40;99.90;;;;;;4860378;29;20056;-91
2021/08/19 12:24:31;;;;;;;1.75;1.48;;;19.20;99.90;;;;;;4865090;29;20044;-85
2021/08/19 12:27:17;;;;;;;1.88;1.73;;;19.30;99.90;;;;;;4874860;29;20056;-88
2021/08/19 12:29:51;;;;;;;1.73;1.63;;;19.70;99.90;;;;;;4860990;29;20119;-85
2021/08/19 12:32:25;;;;;;;2.80;2.38;;;19.80;99.90;;;;;;4861431;29;20041;-85
2021/08/19 12:35:00;;;;;;;1.73;1.60;;;19.90;99.90;;;;;;4857099;29;20068;-86
2021/08/19 12:37:30;;;;;;;1.70;1.55;;;20.10;99.90;;;;;;4856319;29;20407;-87
2021/08/19 12:40:10;;;;;;;1.48;1.35;;;20.20;99.90;;;;;;4856449;29;20042;-85
2021/08/19 12:42:39;;;;;;;2.50;1.65;;;20.40;99.90;;;;;;4856471;29;20053;-83
2021/08/19 12:45:16;;;;;;;2.85;1.95;;;20.50;99.90;;;;;;4855653;29;20391;-79
2021/08/19 12:47:48;;;;;;;4.75;1.83;;;20.40;99.90;;;;;;4869220;29;20042;-80
2021/08/19 12:50:21;;;;;;;2.00;1.55;;;20.50;99.90;;;;;;4875493;29;20088;-79
2021/08/19 12:52:49;;;;;;;3.38;2.50;;;20.70;99.90;;;;;;4874436;29;20045;-79
2021/08/19 12:55:19;;;;;;;2.42;2.22;;;20.90;99.90;;;;;;4867664;29;20064;-79
2021/08/19 12:57:52;;;;;;;2.35;2.00;;;21.00;99.90;;;;;;4866068;29;20056;-79
2021/08/19 13:00:23;;;;;;;2.70;1.60;;;20.90;99.90;;;;;;4875506;29;20045;-80
2021/08/19 13:02:51;;;;;;;2.17;1.83;;;21.10;99.90;;;;;;4875220;29;20394;-81
2021/08/19 13:05:24;;;;;;;3.95;1.48;;;21.00;99.90;;;;;;4875460;29;20052;-79
2021/08/19 13:07:52;;;;;;;2.30;1.80;;;20.60;99.90;;;;;;4870429;29;20456;-81
2021/08/19 13:10:22;;;;;;;3.22;1.50;;;20.60;99.90;;;;;;4857287;29;20664;-82